Time;durP1;ratioP1;P1;durP2;ratioP2;P2;SDS_P1;SDS_P2;PMS_P1;PMS_P2;Temp;Humidity;BMP_temperature;BMP_pressure;BME280_temperature;BME280_humidity;BME280_pressure;Samples;Min_cycle;Max_cycle;Signal;HPM_P1;HPM_P2
2023/04/09 00:02:12;;;;;;;13.30;11.90;;;;;;;10.98;55.23;98102.00;5049715;28;20356;-70
2023/04/09 00:04:37;;;;;;;15.33;12.50;;;;;;;11.06;55.38;98106.59;5055033;28;20640;-69
2023/04/09 00:07:02;;;;;;;14.83;11.90;;;;;;;11.13;55.28;98105.09;5046030;28;20183;-69
2023/04/09 00:09:28;;;;;;;13.27;11.70;;;;;;;11.20;54.89;98103.59;5047323;28;20183;-69
2023/04/09 00:11:53;;;;;;;14.80;12.43;;;;;;;11.21;55.05;98099.19;5043820;28;20175;-68
2023/04/09 00:14:19;;;;;;;14.90;12.33;;;;;;;11.24;54.91;98103.31;5053542;28;20637;-70
2023/04/09 00:16:44;;;;;;;17.70;13.53;;;;;;;11.22;54.73;98106.91;5040221;28;20265;-70
2023/04/09 00:19:10;;;;;;;21.40;14.03;;;;;;;10.98;55.90;98099.41;5048118;28;20206;-70
2023/04/09 00:21:36;;;;;;;23.60;13.40;;;;;;;10.89;56.06;98106.25;5054571;28;20206;-69
2023/04/09 00:24:01;;;;;;;20.13;13.13;;;;;;;10.87;56.05;98096.88;5050962;28;20298;-70
2023/04/09 00:26:27;;;;;;;16.53;12.90;;;;;;;11.00;55.98;98096.63;5058324;28;20244;-70
2023/04/09 00:28:52;;;;;;;20.53;12.70;;;;;;;10.92;55.88;98094.66;5050688;28;20206;-69
2023/04/09 00:31:18;;;;;;;18.70;13.50;;;;;;;11.02;55.83;98095.56;5056093;28;20195;-70
2023/04/09 00:33:43;;;;;;;19.23;13.30;;;;;;;10.96;56.05;98095.25;5050773;28;20616;-69
2023/04/09 00:36:09;;;;;;;19.60;13.57;;;;;;;11.02;55.45;98087.69;5056531;28;20442;-70
2023/04/09 00:38:34;;;;;;;21.83;13.23;;;;;;;11.10;55.77;98088.78;5048782;28;20226;-69
2023/04/09 00:41:00;;;;;;;19.97;13.40;;;;;;;11.09;55.74;98095.81;5049164;28;20194;-70
2023/04/09 00:43:25;;;;;;;20.23;13.23;;;;;;;11.09;55.73;98087.13;5044931;28;20192;-69
2023/04/09 00:45:51;;;;;;;26.37;15.60;;;;;;;11.04;55.58;98085.72;5041178;28;20189;-70
2023/04/09 00:48:17;;;;;;;32.97;15.90;;;;;;;11.04;55.78;98092.78;5061290;28;20217;-70
2023/04/09 00:50:42;;;;;;;49.87;18.93;;;;;;;10.84;56.37;98090.06;5048556;28;20188;-70
2023/04/09 00:53:08;;;;;;;35.57;17.90;;;;;;;10.88;56.25;98083.63;5043439;28;20183;-71
2023/04/09 00:55:35;;;;;;;31.83;16.47;;;;;;;10.96;56.04;98092.63;5036741;28;20175;-69
2023/04/09 00:58:00;;;;;;;27.07;15.00;;;;;;;10.95;55.71;98094.41;5047641;28;20209;-70
2023/04/09 01:00:26;;;;;;;26.00;13.87;;;;;;;10.84;56.34;98087.44;5045139;28;20446;-69
2023/04/09 01:02:52;;;;;;;21.77;14.33;;;;;;;10.86;56.44;98093.41;5050972;28;20248;-70
2023/04/09 01:05:18;;;;;;;20.43;14.30;;;;;;;10.89;56.43;98087.09;5043521;28;20439;-70
2023/04/09 01:08:05;;;;;;;16.60;13.20;;;;;;;10.82;56.59;98089.41;5049415;28;21054;-70
2023/04/09 01:10:35;;;;;;;18.00;13.00;;;;;;;10.90;56.54;98084.31;5052569;28;20183;-70
2023/04/09 01:13:11;;;;;;;18.47;13.77;;;;;;;10.85;56.38;98083.88;5052189;28;20486;-70
2023/04/09 01:15:46;;;;;;;18.60;12.53;;;;;;;10.69;56.77;98088.78;5048056;28;20520;-71
2023/04/09 01:18:21;;;;;;;17.27;13.57;;;;;;;10.79;56.72;98083.56;5036628;28;20466;-70
2023/04/09 01:20:52;;;;;;;19.00;14.20;;;;;;;10.79;56.66;98089.66;5051512;28;20977;-71
2023/04/09 01:23:31;;;;;;;18.80;14.10;;;;;;;10.90;56.69;98081.69;5049512;28;20422;-71
2023/04/09 01:26:09;;;;;;;17.20;13.87;;;;;;;10.96;56.33;98084.75;5045525;28;20433;-70
2023/04/09 01:28:39;;;;;;;15.33;12.90;;;;;;;11.02;56.19;98081.59;5048958;28;20892;-70
2023/04/09 01:31:13;;;;;;;19.80;13.83;;;;;;;10.92;56.62;98089.41;5048406;28;20483;-69
2023/04/09 01:33:39;;;;;;;16.27;13.03;;;;;;;10.98;56.53;98081.03;5055095;28;20760;-69
2023/04/09 01:36:06;;;;;;;14.67;12.17;;;;;;;11.05;56.27;98078.69;5033258;28;20434;-69
2023/04/09 01:38:32;;;;;;;15.27;12.40;;;;;;;11.10;56.00;98086.16;5045908;28;21029;-70
2023/04/09 01:40:58;;;;;;;16.40;11.77;;;;;;;11.07;56.21;98082.84;5034592;28;20556;-70
2023/04/09 01:43:25;;;;;;;23.23;14.80;;;;;;;11.04;56.06;98088.34;5045600;28;20904;-69
2023/04/09 01:45:52;;;;;;;17.87;14.00;;;;;;;11.01;56.05;98088.63;5039574;28;20877;-70
2023/04/09 01:48:18;;;;;;;21.70;15.17;;;;;;;10.92;55.92;98084.16;5046088;28;20438;-70
2023/04/09 01:50:44;;;;;;;19.13;14.10;;;;;;;10.63;57.17;98087.53;5038893;28;20485;-69
2023/04/09 01:53:09;;;;;;;17.53;13.40;;;;;;;10.59;57.20;98086.94;5042750;28;20996;-69
2023/04/09 01:55:35;;;;;;;21.50;14.50;;;;;;;10.70;57.19;98080.78;5036319;28;20182;-69
2023/04/09 01:58:00;;;;;;;17.50;13.40;;;;;;;10.79;57.04;98084.41;5034891;28;20625;-69
2023/04/09 02:00:30;;;;;;;16.37;13.40;;;;;;;10.80;56.47;98088.69;5037779;28;20293;-69
2023/04/09 02:03:24;;;;;;;14.53;12.90;;;;;;;10.88;56.79;98088.84;5036536;28;20187;-70
2023/04/09 02:05:54;;;;;;;17.87;13.57;;;;;;;10.88;56.50;98082.81;5043670;28;20469;-69
2023/04/09 02:08:20;;;;;;;15.57;13.27;;;;;;;10.91;56.40;98082.50;5054166;28;20476;-70
2023/04/09 02:10:52;;;;;;;21.47;14.30;;;;;;;10.82;56.51;98086.78;5048496;28;20426;-69
2023/04/09 02:13:18;;;;;;;19.80;14.70;;;;;;;10.88;56.92;98083.63;5053952;28;21129;-69
2023/04/09 02:15:44;;;;;;;15.63;13.07;;;;;;;10.86;56.53;98089.97;5047038;28;20479;-70
2023/04/09 02:18:23;;;;;;;18.73;13.30;;;;;;;10.85;56.67;98083.88;5033305;28;20443;-69
2023/04/09 02:20:49;;;;;;;17.60;13.67;;;;;;;10.76;56.69;98079.44;5051106;28;20871;-70
2023/04/09 02:23:15;;;;;;;16.30;13.57;;;;;;;10.55;57.40;98077.69;5047130;28;20422;-69
2023/04/09 02:25:40;;;;;;;14.90;12.67;;;;;;;10.59;57.41;98078.25;5047245;28;20222;-70
2023/04/09 02:28:06;;;;;;;19.70;12.50;;;;;;;10.57;57.49;98075.78;5052223;28;20890;-69
2023/04/09 02:30:31;;;;;;;16.20;13.27;;;;;;;10.66;57.42;98071.50;5049585;28;20175;-69
2023/04/09 02:32:58;;;;;;;15.63;12.83;;;;;;;10.74;57.22;98076.09;5043667;28;20747;-70
2023/04/09 02:35:23;;;;;;;16.00;12.47;;;;;;;10.79;57.08;98073.94;5048359;28;20187;-69
2023/04/09 02:37:49;;;;;;;15.93;12.30;;;;;;;10.77;56.88;98073.22;5052915;28;20471;-69
2023/04/09 02:40:14;;;;;;;13.83;12.33;;;;;;;10.73;57.06;98070.03;5049608;28;20278;-69
2023/04/09 02:42:40;;;;;;;15.70;12.77;;;;;;;10.71;57.05;98084.25;5040798;28;20270;-70
2023/04/09 02:45:06;;;;;;;16.77;13.00;;;;;;;10.67;57.24;98080.22;5052458;28;20214;-69
2023/04/09 02:47:31;;;;;;;13.70;11.63;;;;;;;10.71;57.18;98076.38;5051747;28;20210;-69
2023/04/09 02:49:57;;;;;;;15.63;12.67;;;;;;;10.65;56.88;98077.72;5048267;28;20455;-69
2023/04/09 02:52:23;;;;;;;14.97;12.90;;;;;;;10.65;57.59;98069.03;5045926;28;20179;-70
2023/04/09 02:54:49;;;;;;;15.60;12.20;;;;;;;10.67;57.14;98074.97;5038311;28;20253;-70
2023/04/09 02:57:14;;;;;;;13.77;11.77;;;;;;;10.66;57.05;98076.75;5048176;28;21133;-71
2023/04/09 02:59:40;;;;;;;16.23;11.77;;;;;;;10.68;56.86;98077.47;5054464;28;20286;-69
2023/04/09 03:02:05;;;;;;;16.43;13.37;;;;;;;10.60;57.17;98075.50;5047826;28;20206;-70
2023/04/09 03:04:31;;;;;;;14.30;12.10;;;;;;;10.60;57.19;98069.44;5047851;28;20193;-69
2023/04/09 03:06:56;;;;;;;14.10;12.00;;;;;;;10.53;57.62;98069.13;5049009;28;20622;-70
2023/04/09 03:09:22;;;;;;;17.90;12.20;;;;;;;10.53;56.91;98069.13;5048178;28;20344;-70
2023/04/09 03:11:47;;;;;;;16.80;12.00;;;;;;;10.47;57.72;98072.25;5039071;28;20214;-70
2023/04/09 03:14:12;;;;;;;13.80;11.77;;;;;;;10.44;57.42;98069.91;5053850;28;20262;-69
2023/04/09 03:16:38;;;;;;;16.80;11.83;;;;;;;10.42;57.69;98072.66;5044784;28;20264;-70
2023/04/09 03:19:03;;;;;;;16.40;12.03;;;;;;;10.43;57.52;98063.00;5050360;28;20206;-69
2023/04/09 03:21:29;;;;;;;14.00;11.10;;;;;;;10.43;57.77;98063.81;5051024;28;20301;-69
2023/04/09 03:23:54;;;;;;;14.37;11.70;;;;;;;10.47;57.55;98060.97;5047227;28;20193;-70
2023/04/09 03:26:20;;;;;;;14.43;11.37;;;;;;;10.48;57.44;98057.38;5033521;28;20199;-70
2023/04/09 03:28:45;;;;;;;15.50;11.50;;;;;;;10.46;57.33;98057.47;5032858;28;20302;-69
2023/04/09 03:31:12;;;;;;;21.77;13.07;;;;;;;10.40;57.48;98061.47;5040658;28;20719;-69
2023/04/09 03:33:38;;;;;;;15.03;12.40;;;;;;;10.44;57.75;98062.06;5036128;28;20199;-69
2023/04/09 03:36:04;;;;;;;13.33;11.20;;;;;;;10.44;57.69;98059.44;5041600;28;20839;-69
2023/04/09 03:38:29;;;;;;;15.30;11.60;;;;;;;10.39;57.85;98061.59;5043354;28;20570;-69
2023/04/09 03:40:55;;;;;;;20.40;13.00;;;;;;;10.43;57.87;98063.00;5035509;28;20457;-70
2023/04/09 03:43:20;;;;;;;16.13;10.70;;;;;;;10.45;57.64;98058.47;5040408;28;20194;-69
2023/04/09 03:45:46;;;;;;;17.33;11.47;;;;;;;10.44;57.57;98060.25;5036004;28;20190;-69
2023/04/09 03:48:11;;;;;;;13.00;11.60;;;;;;;10.41;57.77;98062.31;5046604;28;20233;-70
2023/04/09 03:50:38;;;;;;;14.57;11.93;;;;;;;10.41;57.66;98057.06;5041164;28;20187;-70
2023/04/09 03:53:04;;;;;;;13.20;11.67;;;;;;;10.34;57.88;98058.50;5043512;28;20232;-70
2023/04/09 03:55:29;;;;;;;14.00;11.57;;;;;;;10.37;57.96;98055.63;5051302;28;20421;-70
2023/04/09 03:57:55;;;;;;;16.80;12.47;;;;;;;10.35;57.73;98055.78;5043106;28;20196;-69
2023/04/09 04:00:21;;;;;;;16.30;12.07;;;;;;;10.38;58.13;98050.31;5049426;28;20703;-70
2023/04/09 04:02:46;;;;;;;17.60;12.57;;;;;;;10.37;57.81;98051.22;5046317;28;20187;-71
2023/04/09 04:05:12;;;;;;;13.37;11.60;;;;;;;10.40;57.89;98053.59;5052436;28;20788;-70
2023/04/09 04:07:38;;;;;;;18.50;11.90;;;;;;;10.35;57.71;98050.53;5050142;28;20234;-69
2023/04/09 04:10:07;;;;;;;19.67;12.37;;;;;;;10.35;58.00;98050.53;5058025;28;20183;-70
2023/04/09 04:12:32;;;;;;;14.33;12.10;;;;;;;10.26;58.04;98060.00;5038836;28;20183;-69
2023/04/09 04:14:57;;;;;;;12.37;11.07;;;;;;;10.21;58.30;98058.72;5045993;28;20461;-68
2023/04/09 04:17:23;;;;;;;14.90;12.00;;;;;;;10.25;58.25;98060.94;5049494;28;20222;-69
2023/04/09 04:19:48;;;;;;;11.60;10.37;;;;;;;10.24;58.14;98069.75;5048792;28;20198;-69
2023/04/09 04:22:14;;;;;;;13.27;11.60;;;;;;;10.13;58.28;98072.44;5052101;28;20215;-69
2023/04/09 04:24:39;;;;;;;14.33;11.07;;;;;;;10.13;58.65;98077.69;5045272;28;20174;-69
2023/04/09 04:27:05;;;;;;;14.60;11.33;;;;;;;10.17;58.54;98079.09;5052489;28;20183;-69
2023/04/09 04:29:31;;;;;;;13.03;11.53;;;;;;;10.21;58.22;98077.88;5049989;28;20337;-69
2023/04/09 04:31:56;;;;;;;17.30;11.40;;;;;;;10.08;58.33;98082.50;5057264;28;20240;-70
2023/04/09 04:34:22;;;;;;;15.43;12.40;;;;;;;10.06;58.78;98087.03;5049605;28;20183;-70
2023/04/09 04:36:47;;;;;;;12.63;11.33;;;;;;;10.12;58.61;98076.03;5037245;28;20298;-69
2023/04/09 04:39:12;;;;;;;14.03;11.50;;;;;;;10.15;58.27;98073.16;5046963;28;20634;-70
2023/04/09 04:41:38;;;;;;;15.50;12.07;;;;;;;10.18;58.30;98075.53;5011822;28;20212;-69
2023/04/09 04:44:03;;;;;;;16.90;12.33;;;;;;;10.15;58.72;98076.59;5029511;28;20188;-70
2023/04/09 04:46:29;;;;;;;15.97;12.20;;;;;;;10.20;58.77;98081.47;5041151;28;20179;-68
2023/04/09 04:48:54;;;;;;;17.13;11.43;;;;;;;10.23;58.28;98078.56;5041526;28;21688;-69
2023/04/09 04:51:20;;;;;;;13.07;11.30;;;;;;;10.19;58.36;98077.19;5040445;28;20179;-69
2023/04/09 04:53:45;;;;;;;14.60;11.30;;;;;;;10.22;58.51;98082.16;5046460;28;20725;-70
2023/04/09 04:56:14;;;;;;;21.60;12.57;;;;;;;10.17;58.52;98083.50;5052053;28;20225;-69
2023/04/09 04:58:40;;;;;;;20.97;11.87;;;;;;;10.06;58.44;98079.19;5040540;28;20227;-69
2023/04/09 05:01:05;;;;;;;12.90;11.10;;;;;;;10.00;58.76;98077.91;5045399;28;20450;-70
2023/04/09 05:03:31;;;;;;;14.80;11.53;;;;;;;10.02;58.73;98088.25;5041669;28;20426;-69
2023/04/09 05:05:56;;;;;;;13.87;12.00;;;;;;;10.03;58.72;98085.47;5048474;28;20183;-70
2023/04/09 05:08:22;;;;;;;16.80;11.60;;;;;;;10.01;58.83;98079.56;5039407;28;20212;-70
2023/04/09 05:10:47;;;;;;;14.80;12.07;;;;;;;10.07;58.85;98088.69;5047610;28;20187;-69
2023/04/09 05:13:13;;;;;;;14.70;11.83;;;;;;;10.14;58.59;98084.59;5056778;28;20313;-69
2023/04/09 05:15:39;;;;;;;14.63;12.50;;;;;;;10.18;58.62;98079.94;5059559;28;20211;-69
2023/04/09 05:18:05;;;;;;;15.40;12.83;;;;;;;10.13;58.53;98081.16;5044447;28;20524;-70
2023/04/09 05:20:31;;;;;;;14.40;12.23;;;;;;;10.24;58.52;98085.47;5056268;28;20996;-69
2023/04/09 05:22:56;;;;;;;15.00;13.10;;;;;;;10.30;58.46;98084.13;5059149;28;20505;-70
2023/04/09 05:25:21;;;;;;;16.53;14.03;;;;;;;10.28;58.64;98076.41;5048591;28;20187;-70
2023/04/09 05:27:47;;;;;;;17.03;13.40;;;;;;;10.30;58.51;98082.38;5042897;28;20198;-69
2023/04/09 05:30:12;;;;;;;19.40;14.47;;;;;;;10.39;58.17;98091.28;5056062;28;20183;-69
2023/04/09 05:32:38;;;;;;;17.53;14.03;;;;;;;10.43;58.04;98083.97;5040050;28;20926;-69
2023/04/09 05:35:04;;;;;;;14.87;12.47;;;;;;;10.23;58.28;98081.19;5050247;28;20195;-69
2023/04/09 05:37:30;;;;;;;16.73;12.63;;;;;;;10.30;58.31;98079.75;5037505;28;20687;-69
2023/04/09 05:39:55;;;;;;;16.53;12.77;;;;;;;10.28;58.41;98084.28;5051292;28;20418;-69
2023/04/09 05:42:21;;;;;;;22.30;13.40;;;;;;;10.29;58.65;98087.72;5053932;28;20211;-69
2023/04/09 05:44:46;;;;;;;14.83;12.73;;;;;;;10.33;58.69;98085.69;5049374;28;20183;-69
2023/04/09 05:47:12;;;;;;;14.60;12.63;;;;;;;10.38;58.29;98091.38;5033989;28;20186;-69
2023/04/09 05:49:37;;;;;;;19.50;13.20;;;;;;;10.43;58.15;98092.66;5042070;28;20279;-68
2023/04/09 05:52:03;;;;;;;13.43;12.03;;;;;;;10.37;58.55;98089.69;5042198;28;20180;-69
2023/04/09 05:54:28;;;;;;;17.97;14.13;;;;;;;10.26;58.47;98088.81;5046341;28;20583;-70
2023/04/09 05:56:54;;;;;;;19.77;15.50;;;;;;;10.30;58.36;98094.63;5042721;28;20211;-69
2023/04/09 05:59:19;;;;;;;23.27;17.43;;;;;;;10.41;58.50;98096.38;5028830;28;20273;-69
2023/04/09 06:01:45;;;;;;;22.57;16.97;;;;;;;10.53;58.37;98097.13;5029644;28;20248;-69
2023/04/09 06:04:10;;;;;;;19.83;15.03;;;;;;;10.67;58.27;98101.19;5029811;28;20202;-67
2023/04/09 06:06:38;;;;;;;18.17;14.30;;;;;;;10.78;58.11;98098.47;5042690;28;20210;-69
2023/04/09 06:09:04;;;;;;;17.40;15.07;;;;;;;10.99;57.91;98100.22;5043579;28;20787;-69
2023/04/09 06:11:30;;;;;;;15.73;13.43;;;;;;;11.20;57.55;98106.22;5037178;28;20488;-68
2023/04/09 06:13:55;;;;;;;20.13;15.40;;;;;;;11.44;56.78;98101.56;5040215;28;20214;-69
2023/04/09 06:16:20;;;;;;;17.43;14.17;;;;;;;11.67;56.62;98096.91;5048804;28;20274;-69
2023/04/09 06:18:48;;;;;;;19.63;14.83;;;;;;;11.90;55.97;98094.00;5038337;28;20291;-69
2023/04/09 06:21:14;;;;;;;17.27;14.20;;;;;;;12.03;55.48;98091.94;5038951;28;20203;-69
2023/04/09 06:23:39;;;;;;;16.00;13.17;;;;;;;12.12;54.68;98095.53;5032929;28;20472;-69
2023/04/09 06:26:05;;;;;;;19.83;14.30;;;;;;;12.17;54.36;98092.47;5039469;28;20645;-69
2023/04/09 06:28:31;;;;;;;15.73;14.00;;;;;;;12.29;54.45;98088.72;5036052;28;20202;-68
2023/04/09 06:30:57;;;;;;;18.63;14.23;;;;;;;12.46;53.76;98088.97;5051013;28;20167;-70
2023/04/09 06:33:22;;;;;;;19.53;13.83;;;;;;;12.58;53.55;98086.00;5045521;28;20224;-70
2023/04/09 06:35:48;;;;;;;15.53;13.70;;;;;;;12.78;53.44;98093.00;5039402;28;20422;-70
2023/04/09 06:38:14;;;;;;;15.40;13.57;;;;;;;12.93;52.49;98083.66;5037282;28;20298;-69
2023/04/09 06:40:40;;;;;;;16.13;14.43;;;;;;;13.04;52.01;98091.38;5037421;28;20699;-70
2023/04/09 06:43:06;;;;;;;14.83;12.97;;;;;;;13.18;51.55;98089.22;5041580;28;20437;-69
2023/04/09 06:45:32;;;;;;;14.70;12.97;;;;;;;13.40;51.06;98089.81;5041781;28;20187;-70
2023/04/09 06:47:58;;;;;;;16.43;13.40;;;;;;;13.70;51.77;98098.34;5042973;28;20211;-70
2023/04/09 06:50:23;;;;;;;14.43;11.73;;;;;;;14.14;51.98;98095.72;5042631;28;20426;-70
2023/04/09 06:52:50;;;;;;;15.90;13.30;;;;;;;14.26;47.82;98094.50;5032263;28;20435;-70
2023/04/09 06:55:15;;;;;;;14.50;12.97;;;;;;;14.21;48.46;98095.94;5046984;28;20208;-71
2023/04/09 06:57:41;;;;;;;17.17;13.30;;;;;;;14.22;47.91;98097.59;5036092;28;20453;-71
2023/04/09 07:00:07;;;;;;;17.47;14.00;;;;;;;14.18;48.30;98098.88;5041181;28;20556;-71
2023/04/09 07:02:33;;;;;;;15.17;12.50;;;;;;;14.15;47.69;98100.03;5033981;28;20310;-71
2023/04/09 07:04:58;;;;;;;17.70;13.37;;;;;;;14.27;47.69;98103.25;5041035;28;20655;-71
2023/04/09 07:07:23;;;;;;;13.93;12.23;;;;;;;14.41;47.39;98105.34;5034897;28;20190;-71
2023/04/09 07:09:50;;;;;;;15.03;13.43;;;;;;;14.52;46.49;98103.41;5037570;28;20332;-71
2023/04/09 07:12:26;;;;;;;13.70;12.30;;;;;;;14.71;46.00;98102.41;5034920;28;20198;-72
2023/04/09 07:14:51;;;;;;;15.80;13.10;;;;;;;14.85;46.53;98099.19;5047813;28;20419;-74
2023/04/09 07:17:17;;;;;;;13.20;11.60;;;;;;;14.82;43.90;98102.13;5040988;28;20978;-70
2023/04/09 07:19:42;;;;;;;12.97;11.40;;;;;;;14.81;43.70;98097.84;5036286;28;20191;-69
2023/04/09 07:22:08;;;;;;;11.77;10.57;;;;;;;14.68;42.36;98094.78;5046898;28;20239;-69
2023/04/09 07:24:33;;;;;;;11.40;10.20;;;;;;;14.93;42.64;98097.56;5042351;28;20274;-70
2023/04/09 07:27:02;;;;;;;12.47;11.17;;;;;;;15.16;42.36;98098.63;5034994;28;20210;-70
2023/04/09 07:29:28;;;;;;;12.00;10.27;;;;;;;15.26;42.89;98095.03;5041243;28;20234;-70
2023/04/09 07:31:53;;;;;;;11.53;10.40;;;;;;;15.33;41.73;98099.50;5032166;28;20505;-70
2023/04/09 07:34:19;;;;;;;11.93;9.90;;;;;;;15.51;42.06;98109.94;5042394;28;20214;-70
2023/04/09 07:36:44;;;;;;;11.30;10.10;;;;;;;15.59;41.37;98100.41;5041854;28;20181;-70
2023/04/09 07:39:10;;;;;;;12.00;10.33;;;;;;;15.71;40.47;98106.19;5048717;28;20287;-70
2023/04/09 07:41:36;;;;;;;12.47;8.60;;;;;;;15.80;39.22;98108.69;5041272;28;20196;-71
2023/04/09 07:44:02;;;;;;;9.97;8.97;;;;;;;15.95;38.91;98106.22;5047261;28;20335;-69
2023/04/09 07:46:28;;;;;;;10.73;8.80;;;;;;;15.99;38.09;98117.34;5038477;28;20460;-70
2023/04/09 07:48:53;;;;;;;10.00;9.00;;;;;;;16.05;38.34;98111.38;5031852;28;20454;-70
2023/04/09 07:51:19;;;;;;;9.93;8.50;;;;;;;16.13;37.78;98119.28;5044931;28;20175;-69
2023/04/09 07:53:44;;;;;;;9.50;8.33;;;;;;;16.23;37.07;98118.31;5048699;28;20183;-73
2023/04/09 07:56:10;;;;;;;10.53;8.53;;;;;;;16.35;37.23;98127.56;5035446;28;20273;-71
2023/04/09 07:58:36;;;;;;;10.07;7.97;;;;;;;16.53;36.93;98124.72;5049014;28;20198;-70
2023/04/09 08:01:02;;;;;;;8.77;7.97;;;;;;;16.58;36.86;98126.88;5056837;28;20225;-72
2023/04/09 08:03:27;;;;;;;8.63;7.73;;;;;;;16.39;35.74;98130.69;5040864;28;20418;-74
2023/04/09 08:05:53;;;;;;;8.70;7.70;;;;;;;16.31;36.05;98128.06;5050797;28;20262;-72
2023/04/09 08:08:18;;;;;;;7.40;6.70;;;;;;;16.10;35.89;98138.16;5059010;28;20735;-72
2023/04/09 08:10:44;;;;;;;7.90;7.10;;;;;;;15.61;36.33;98130.94;5050947;28;20701;-70
2023/04/09 08:13:10;;;;;;;7.43;6.73;;;;;;;15.48;36.09;98120.84;5055182;28;20175;-70
2023/04/09 08:15:35;;;;;;;8.37;7.53;;;;;;;15.86;36.09;98124.91;5036821;28;20184;-71
2023/04/09 08:18:03;;;;;;;10.00;6.93;;;;;;;15.81;35.87;98126.19;5024798;28;20211;-71
2023/04/09 08:20:29;;;;;;;8.57;7.77;;;;;;;16.12;36.72;98122.94;5039311;28;20191;-71
2023/04/09 08:22:54;;;;;;;9.00;8.10;;;;;;;16.47;36.54;98125.38;5038139;28;20426;-70
2023/04/09 08:25:21;;;;;;;10.73;9.63;;;;;;;16.81;36.81;98127.00;5040534;28;20475;-70
2023/04/09 08:27:46;;;;;;;11.07;9.83;;;;;;;16.63;36.30;98121.91;5046286;28;20283;-70
2023/04/09 08:30:12;;;;;;;10.60;9.50;;;;;;;16.79;35.95;98123.69;5042601;28;20544;-71
2023/04/09 08:32:37;;;;;;;10.30;9.30;;;;;;;17.08;36.14;98129.41;5036548;28;20726;-70
2023/04/09 08:35:03;;;;;;;9.67;8.67;;;;;;;17.01;34.21;98138.03;5045972;28;20245;-70
2023/04/09 08:37:28;;;;;;;8.50;7.60;;;;;;;17.39;34.45;98125.97;5037284;28;20226;-71
2023/04/09 08:39:54;;;;;;;8.50;7.70;;;;;;;17.26;32.89;98129.16;5034026;28;20230;-71
2023/04/09 08:42:20;;;;;;;8.83;7.93;;;;;;;17.70;33.29;98141.03;5033616;28;20207;-71
2023/04/09 08:44:46;;;;;;;8.93;8.10;;;;;;;17.86;32.38;98132.97;5045297;28;20211;-71
2023/04/09 08:47:11;;;;;;;6.00;5.50;;;;;;;17.54;30.30;98131.34;5055404;28;20503;-71
2023/04/09 08:49:40;;;;;;;7.30;6.60;;;;;;;17.27;30.62;98136.94;5034729;28;20203;-71
2023/04/09 08:52:06;;;;;;;6.93;6.17;;;;;;;17.43;30.66;98129.91;5046184;28;20551;-70
2023/04/09 08:54:31;;;;;;;6.50;5.90;;;;;;;17.90;30.87;98125.47;5050184;28;20426;-71
2023/04/09 08:56:57;;;;;;;7.57;6.83;;;;;;;18.18;31.16;98138.25;5049431;28;20648;-71
2023/04/09 08:59:23;;;;;;;7.03;6.40;;;;;;;18.49;31.21;98134.63;5050391;28;20229;-71
2023/04/09 09:01:52;;;;;;;6.30;5.70;;;;;;;18.51;29.58;98136.13;5058172;28;20923;-71
2023/04/09 09:04:18;;;;;;;7.53;6.20;;;;;;;18.77;29.51;98142.84;5048000;28;20218;-71
2023/04/09 09:06:44;;;;;;;6.87;6.23;;;;;;;18.66;29.03;98140.59;5048741;28;20441;-71
2023/04/09 09:09:12;;;;;;;7.00;6.37;;;;;;;18.65;29.06;98139.00;5046265;28;20636;-70
2023/04/09 09:11:40;;;;;;;7.00;6.27;;;;;;;18.42;28.70;98150.47;5043341;28;20709;-70
2023/04/09 09:14:08;;;;;;;7.50;6.70;;;;;;;18.40;28.88;98144.50;5053984;28;20559;-70
2023/04/09 09:16:35;;;;;;;7.23;6.53;;;;;;;18.74;28.86;98148.50;5054156;28;20504;-69
2023/04/09 09:19:01;;;;;;;9.80;8.10;;;;;;;18.93;30.55;98138.34;5047222;28;20451;-71
2023/04/09 09:21:28;;;;;;;9.23;8.23;;;;;;;19.15;30.77;98142.75;5041426;28;20523;-71
2023/04/09 09:23:55;;;;;;;9.07;8.17;;;;;;;18.71;30.05;98146.22;5056738;28;20440;-71
2023/04/09 09:26:25;;;;;;;8.50;7.70;;;;;;;18.46;30.91;98157.06;5050545;28;20972;-70
2023/04/09 09:28:51;;;;;;;7.77;7.00;;;;;;;17.72;30.51;98154.94;5047615;28;20462;-70
2023/04/09 09:31:18;;;;;;;7.10;6.40;;;;;;;17.44;30.70;98148.31;5046392;28;20886;-71
2023/04/09 09:33:43;;;;;;;7.23;6.53;;;;;;;17.89;30.62;98151.19;5049176;28;20188;-71
2023/04/09 09:36:09;;;;;;;7.67;6.87;;;;;;;18.07;30.34;98158.03;5046031;28;20426;-71
2023/04/09 09:38:51;;;;;;;6.67;6.07;;;;;;;18.48;30.06;98163.03;5042105;28;20206;-70
2023/04/09 09:41:18;;;;;;;7.47;6.77;;;;;;;18.51;29.41;98162.66;5044572;28;20221;-72
2023/04/09 09:43:44;;;;;;;6.73;6.13;;;;;;;18.78;28.65;98165.72;5051970;28;20417;-71
2023/04/09 09:46:10;;;;;;;7.80;7.10;;;;;;;18.78;29.35;98151.63;5049119;28;20530;-71
2023/04/09 09:48:35;;;;;;;7.00;6.30;;;;;;;18.76;29.06;98151.81;5051877;28;20202;-70
2023/04/09 09:51:02;;;;;;;7.50;6.80;;;;;;;18.74;29.70;98153.81;5043074;28;20453;-71
2023/04/09 09:53:29;;;;;;;7.67;6.90;;;;;;;18.23;30.23;98151.78;5044065;28;20610;-70
2023/04/09 09:55:56;;;;;;;7.40;6.70;;;;;;;18.12;31.08;98150.38;5041874;28;20421;-72
2023/04/09 09:58:27;;;;;;;7.70;7.00;;;;;;;17.73;31.11;98151.28;5058015;28;20528;-71
2023/04/09 10:00:52;;;;;;;8.03;7.23;;;;;;;17.73;31.47;98152.09;5050973;28;20449;-72
2023/04/09 10:03:26;;;;;;;7.90;7.07;;;;;;;18.11;30.92;98135.47;5049655;28;20447;-71
2023/04/09 10:05:52;;;;;;;8.50;7.70;;;;;;;18.23;30.39;98146.47;5039571;28;20209;-70
2023/04/09 10:08:19;;;;;;;7.90;7.10;;;;;;;18.67;30.37;98142.25;5046034;28;20446;-71
2023/04/09 10:10:45;;;;;;;7.57;6.90;;;;;;;18.85;29.84;98156.03;5039024;28;20422;-71
2023/04/09 10:13:24;;;;;;;8.07;7.30;;;;;;;18.79;29.53;98151.44;5047052;28;20487;-71
2023/04/09 10:15:50;;;;;;;7.60;6.80;;;;;;;19.07;29.61;98148.16;5044820;28;20666;-71
2023/04/09 10:18:16;;;;;;;6.57;5.97;;;;;;;19.19;26.98;98143.22;5042420;28;20437;-71
2023/04/09 10:20:49;;;;;;;7.40;6.70;;;;;;;18.76;28.21;98146.50;5051756;28;20977;-70
2023/04/09 10:23:23;;;;;;;6.17;5.67;;;;;;;17.90;28.78;98144.84;5022853;28;20460;-70
2023/04/09 10:25:49;;;;;;;6.43;5.83;;;;;;;17.90;28.67;98144.03;5048637;28;20436;-70
2023/04/09 10:28:16;;;;;;;6.80;6.20;;;;;;;18.14;28.96;98137.78;5037336;28;20481;-71
2023/04/09 10:30:42;;;;;;;7.93;7.20;;;;;;;17.92;30.18;98139.41;5050418;28;20186;-72
2023/04/09 10:33:09;;;;;;;6.77;6.17;;;;;;;17.91;30.38;98140.41;5045303;28;20445;-71
2023/04/09 10:35:35;;;;;;;7.07;6.47;;;;;;;17.35;30.02;98139.56;5045002;28;20519;-71
2023/04/09 10:38:00;;;;;;;6.80;6.10;;;;;;;17.58;29.98;98140.63;5044246;28;20532;-70
2023/04/09 10:40:27;;;;;;;6.50;5.90;;;;;;;17.44;29.08;98126.25;5048402;28;20266;-71
2023/04/09 10:42:53;;;;;;;7.03;5.90;;;;;;;17.74;28.77;98144.97;5055313;28;20313;-70
2023/04/09 10:45:19;;;;;;;8.50;5.27;;;;;;;17.49;27.29;98138.00;5054290;28;20418;-70
2023/04/09 10:47:48;;;;;;;5.53;5.03;;;;;;;17.10;27.73;98135.38;5053363;28;20441;-70
2023/04/09 10:50:25;;;;;;;5.53;5.03;;;;;;;16.79;28.50;98141.38;5037551;28;20221;-70
2023/04/09 10:52:52;;;;;;;9.73;5.23;;;;;;;16.55;28.75;98138.63;5037334;28;20426;-71
2023/04/09 10:55:35;;;;;;;5.20;4.70;;;;;;;16.76;27.90;98133.78;5055248;28;20417;-70
2023/04/09 10:58:02;;;;;;;6.00;5.40;;;;;;;16.85;29.17;98143.34;5053802;28;20823;-70
2023/04/09 11:00:27;;;;;;;5.57;5.07;;;;;;;16.82;29.10;98141.84;5038255;28;20416;-70
2023/04/09 11:03:03;;;;;;;5.53;5.03;;;;;;;16.86;29.29;98134.41;5043049;28;20411;-70
2023/04/09 11:05:39;;;;;;;4.90;4.40;;;;;;;16.91;29.23;98132.06;5043165;28;20211;-70
2023/04/09 11:08:08;;;;;;;6.10;5.50;;;;;;;16.67;29.04;98132.97;5047805;28;21012;-70
2023/04/09 11:10:33;;;;;;;6.53;5.83;;;;;;;16.72;30.32;98128.81;5047941;28;20425;-70
2023/04/09 11:12:59;;;;;;;5.90;5.30;;;;;;;16.79;29.55;98131.63;5051137;28;20508;-70
2023/04/09 11:15:25;;;;;;;5.80;5.30;;;;;;;16.97;30.65;98130.59;5056228;28;20186;-70
2023/04/09 11:17:50;;;;;;;6.00;5.47;;;;;;;16.84;29.62;98131.13;5043154;28;20277;-70
2023/04/09 11:20:19;;;;;;;6.47;5.40;;;;;;;16.81;28.92;98132.28;5048483;28;20191;-71